• Join FlightAware (Why Join?)
  • Login
  • US Flag 
07:41AM EST


 

Airport Tracker/Info


-or-


 

Live Flight TrackerFlight Track Log ✈ RPA3243 ✈ 15-May-2013 ✈ KDCA - KMCI

Flight Track Log - Related Links

Times and Time Zones

All times are in EDT time to prevent confusion due to time zone crossing. See the RPA3243 flight status page for this flight to view local times or setup timezone preferences in your user account.

Time Position Orientation Groundspeed Altitude Reporting Facility
EDT Latitude Longitude Course Direction KTS MPH feet Rate Location/Type
07:31PM 38.8500 -77.4289 270° West  Level FlightAware Approximate
07:31PM 38.8000 -77.1000 270° West 247 284 4,400  Level Potomac TRACON
07:32PM 38.8500 -77.5607 270° West  Level FlightAware Approximate
07:32PM 38.8000 -77.2000 270° West 241 277 7,400  Level Potomac TRACON
07:33PM 38.8501 -77.6926 270° West  Level FlightAware Approximate
07:34PM 38.8501 -77.8244 270° West  Level FlightAware Approximate
07:34PM 38.8100 -77.4139 274° West 253 291 12,900  Level Washington Center
07:35PM 38.8501 -77.9563 270° West  Level FlightAware Approximate
07:35PM 38.8167 -77.5206 275° West 278 320 15,200  Level Washington Center
07:36PM 38.8231 -77.6300 274° West 296 341 17,000 1,800 Climbing Washington Center
07:37PM 38.8297 -77.7342 275° West 325 374 18,800 1,980 Climbing Washington Center
07:38PM 38.8378 -77.8622 275° West 330 380 20,900 1,620 Climbing Washington Center
07:39PM 38.8419 -77.9744 273° West 335 386 22,100 1,020 Climbing Washington Center
07:40PM 38.8478 -78.0972 274° West 340 391 23,000 420 Climbing Washington Center
07:41PM 38.8533 -78.2228 273° West 351 404 23,000 180 Level Washington Center
07:42PM 38.8528 -78.3478 270° West 356 410 23,400 840 Climbing Washington Center
07:43PM 38.8517 -78.4786 269° West 356 410 24,800 1,320 Climbing Washington Center
07:44PM 38.8506 -78.6092 269° West 368 423 26,100 1,260 Climbing Washington Center
07:45PM 38.8492 -78.7478 269° West 373 429 27,300 900 Climbing Washington Center
07:46PM 38.8475 -78.8861 269° West 386 444 28,000 300 Climbing Washington Center
07:47PM 38.8456 -79.0275 269° West 392 451 28,000  Level Washington Center
07:48PM 38.8433 -79.1711 269° West 402 463 28,000  Level Washington Center
07:49PM 38.8433 -79.3125 270° West 407 468 28,000  Level Washington Center
07:50PM 38.8386 -79.4589 268° West 407 468 28,000 60 Level Washington Center
07:51PM 38.8356 -79.6158 269° West 416 479 28,200 840 Climbing Washington Center
07:52PM 38.8306 -79.7650 268° West 424 488 29,800 1,380 Climbing Washington Center
07:53PM 38.8278 -79.9061 269° West 418 481 31,000 600 Climbing Washington Center
07:55PM 38.8147 -80.2697 267° West 419 482 32,000 240 Climbing Indianapolis Center
07:57PM 38.8108 -80.4242 268° West 431 496 32,000  Level Indianapolis Center
07:58PM 38.8069 -80.5769 268° West 429 494 32,000  Level Indianapolis Center
07:59PM 38.8019 -80.7308 268° West 431 496 32,000  Level Indianapolis Center
08:00PM 38.7972 -80.8839 268° West 431 496 32,000  Level Indianapolis Center
08:01PM 38.7919 -81.0372 268° West 431 496 32,000  Level Indianapolis Center
08:02PM 38.7872 -81.1922 268° West 434 499 32,000  Level Indianapolis Center
08:03PM 38.7806 -81.3753 267° West 432 497 32,000  Level Indianapolis Center
08:04PM 38.7747 -81.5167 267° West 434 499 32,000  Level Indianapolis Center
08:05PM 38.7692 -81.6747 267° West 434 499 32,000  Level Indianapolis Center
08:06PM 38.7628 -81.8289 267° West 437 503 32,000  Level Indianapolis Center
08:07PM 38.7564 -81.9817 267° West 434 499 32,000  Level Indianapolis Center
08:08PM 38.7500 -82.1678 268° West 436 502 32,000  Level Indianapolis Center
08:09PM 38.7431 -82.3214 267° West 434 499 32,000  Level Indianapolis Center
08:10PM 38.7361 -82.4761 267° West 436 502 32,000  Level Indianapolis Center
08:11PM 38.7308 -82.6308 268° West 435 501 32,000  Level Indianapolis Center
08:12PM 38.7242 -82.7861 267° West 435 501 32,000  Level Indianapolis Center
08:13PM 38.7178 -82.9414 267° West 436 502 32,000  Level Indianapolis Center
08:14PM 38.7108 -83.0958 267° West 436 502 32,000  Level Indianapolis Center
08:15PM 38.7028 -83.2633 267° West 436 502 32,000  Level Indianapolis Center
08:16PM 38.6956 -83.4189 267° West 435 501 32,000  Level Indianapolis Center
08:17PM 38.6875 -83.5750 266° West 435 501 32,000  Level Indianapolis Center
08:18PM 38.6786 -83.7578 266° West 438 504 32,000  Level Indianapolis Center
08:19PM 38.6794 -83.9153 270° West 439 505 32,000  Level Indianapolis Center
08:20PM 38.7011 -84.0686 280° West 438 504 32,000  Level Indianapolis Center
08:21PM 38.7242 -84.2217 281° West 436 502 32,000  Level Indianapolis Center
08:22PM 38.7472 -84.3753 281° West 434 499 32,000  Level Indianapolis Center
08:23PM 38.7700 -84.5303 281° West 437 503 32,000  Level Indianapolis Center
08:24PM 38.7919 -84.6814 281° West 436 502 32,000  Level Indianapolis Center
08:25PM 38.8150 -84.8328 281° West 435 501 32,000  Level Indianapolis Center
08:26PM 38.8378 -84.9853 281° West 438 504 32,000  Level Indianapolis Center
08:27PM 38.8586 -85.1386 280° West 436 502 32,000  Level Indianapolis Center
08:28PM 38.8839 -85.3211 280° West 434 499 32,000  Level Indianapolis Center
08:29PM 38.9061 -85.4733 281° West 434 499 32,000  Level Indianapolis Center
08:30PM 38.9258 -85.6261 279° West 434 499 32,000  Level Indianapolis Center
08:31PM 38.9469 -85.7803 280° West 437 503 32,000  Level Indianapolis Center
08:32PM 38.9672 -85.9331 280° West 435 501 32,000  Level Indianapolis Center
08:34PM 38.9881 -86.0861 280° West 435 501 32,000  Level Indianapolis Center
08:35PM 39.0086 -86.2403 280° West 436 502 32,000  Level Indianapolis Center
08:36PM 39.0297 -86.3950 280° West 438 504 32,000  Level Indianapolis Center
08:37PM 39.0489 -86.5431 280° West 428 493 32,000  Level Indianapolis Center
08:38PM 39.0700 -86.7172 279° West 414 476 32,000  Level Indianapolis Center
08:39PM 39.0883 -86.8625 279° West 414 476 32,000 -720 Level Indianapolis Center
08:40PM 39.1061 -87.0097 279° West 415 478 30,600 -1,020 Descending Indianapolis Center
08:41PM 39.1253 -87.1597 279° West 423 487 30,000 -300 Descending Indianapolis Center
08:42PM 39.1447 -87.3147 279° West 433 498 30,000  Level Indianapolis Center
08:43PM 39.1631 -87.4706 279° West 438 504 30,000  Level Indianapolis Center
08:44PM 39.1819 -87.6289 279° West 446 513 30,000  Level Indianapolis Center
08:45PM 39.2044 -87.8189 279° West 448 516 30,000  Level Indianapolis Center
08:46PM 39.2139 -87.9192 277° West 451 519 30,000  Level Kansas City Center
08:47PM 39.2317 -88.0783 278° West 449 517 30,000  Level Kansas City Center
08:48PM 39.2517 -88.2369 279° West 449 517 30,000  Level Kansas City Center
08:49PM 39.2725 -88.4289 278° West 449 517 30,000  Level Kansas City Center
08:50PM 39.2906 -88.5894 278° West 451 519 30,000  Level Kansas City Center
08:51PM 39.3067 -88.7403 278° West 451 519 30,000  Level Kansas City Center
08:52PM 39.3242 -88.8989 278° West 450 518 30,000  Level Kansas City Center
08:53PM 39.3425 -89.0600 278° West 453 521 30,000  Level Kansas City Center
08:54PM 39.3592 -89.2189 278° West 451 519 30,000  Level Kansas City Center
08:55PM 39.3792 -89.4131 278° West 455 524 30,000  Level Kansas City Center
08:56PM 39.3956 -89.5736 278° West 454 522 30,000 -120 Level Kansas City Center
08:57PM 39.4131 -89.7322 278° West 452 520 29,800 -1,020 Descending Kansas City Center
08:58PM 39.4283 -89.8858 277° West 445 512 28,000 -900 Descending Kansas City Center
08:59PM 39.4417 -90.0367 277° West 433 498 28,000  Level Kansas City Center
09:00PM 39.4514 -90.1894 275° West 430 495 28,000  Level Kansas City Center
09:01PM 39.4608 -90.3433 275° West 431 496 28,000  Level Kansas City Center
09:02PM 39.4728 -90.5286 275° West 433 498 28,000  Level Kansas City Center
09:03PM 39.4819 -90.6814 274° West 431 496 28,000  Level Kansas City Center
09:04PM 39.4911 -90.8353 274° West 431 496 28,000  Level Kansas City Center
09:05PM 39.5003 -90.9894 274° West 432 497 28,000  Level Kansas City Center
09:06PM 39.5086 -91.1447 274° West 434 499 28,000  Level Kansas City Center
09:07PM 39.5175 -91.3000 274° West 434 499 28,000  Level Kansas City Center
09:08PM 39.5250 -91.4664 273° West 433 498 28,000  Level Kansas City Center
09:09PM 39.5344 -91.6214 275° West 434 499 28,000  Level Kansas City Center
09:10PM 39.5431 -91.7750 274° West 433 498 28,000  Level Kansas City Center
09:11PM 39.5519 -91.9639 274° West 436 502 28,000  Level Kansas City Center
09:12PM 39.5594 -92.1214 274° West 440 506 28,000  Level Kansas City Center
09:13PM 39.5678 -92.2750 274° West 434 499 28,000 -240 Level Kansas City Center
09:14PM 39.5736 -92.4289 273° West 430 495 27,600 -720 Descending Kansas City Center
09:15PM 39.5814 -92.5831 274° West 429 494 26,600 -1,020 Descending Kansas City Center
09:16PM 39.5878 -92.7350 273° West 428 493 25,600 -1,020 Descending Kansas City Center
09:17PM 39.5933 -92.8869 273° West 426 490 24,600 -1,080 Descending Kansas City Center
09:18PM 39.6008 -93.0689 273° West 424 488 23,400 -1,500 Descending Kansas City Center
09:19PM 39.6064 -93.2189 273° West 419 482 21,600 -1,920 Descending Kansas City Center
09:20PM 39.6136 -93.3633 274° West 409 471 19,500 -2,040 Descending Kansas City Center
09:21PM 39.6178 -93.5019 272° West 398 458 17,500 -1,980 Descending Kansas City Center
09:22PM 39.6231 -93.6369 273° West 382 440 15,500 -2,040 Descending Kansas City Center
09:23PM 39.6269 -93.7828 272° West 371 427 13,400 -1,980 Descending Kansas City Center
09:25PM 39.6175 -93.9058 264° West 365 420 11,500 -1,740 Descending Kansas City Center
09:26PM 39.5800 -94.0322 249° West 335 386 9,900 -1,200 Descending Kansas City Center
09:27PM 39.5728 -94.1344 265° West 299 344 9,100 -1,320 Descending Kansas City Center
09:28PM 39.5619 -94.2464 263° West 282 325 7,200 -1,080 Descending Kansas City Center
09:29PM 39.5536 -94.3403 263° West 276 318 7,000 -300 Descending Kansas City Center
09:30PM 39.5425 -94.4247 260° West 247 284 6,600 -1,020 Descending Kansas City Center
09:31PM 39.5219 -94.5186 254° West 242 278 5,000 -840 Descending Kansas City Center
09:32PM 39.5056 -94.5939 254° West 228 262 5,000 -480 Level Kansas City Center
09:33PM 39.4656 -94.6622 233° Southwest 217 250 4,100 -900 Descending Kansas City Center